Pleasant Hill, Tennessee
Current Conditions -  °F | °C
As of 4:53 PM on Tuesday 21 Oct 2014 (Local Time) from KCSV Reporting Station
Few Clouds Few Clouds  
Wind Chill: 63°   Ceiling: Unl
Heat Index: 63°   Visibility: 10mi
Dew Point: 43°   Wind: 7mph
Humidity: 48%   Direction: 320°NW
Pressure: 30.04"   Gusts: 17mph
Location:  35.98°N, 85.19°W
Report Text: KCSV 212153Z AUTO 32006G15KT 10SM FEW047 17/06 A3004 RMK AO2 SLP162 T01720061
Loading
Personal Weather Stations






























Interactive Weather Map
Tropical Storm Tracking
New forecast layout! Learn more

10-Day Weather Forecast

Advertisements
Track Severe Weather on mobile